sensor_id;sensor_type;location;lat;lon;timestamp;P1;durP1;ratioP1;P2;durP2;ratioP2
73107;SDS011;61559;50.476;15.588;2023-06-14T00:00:04;3.30;;;1.80;;
73107;SDS011;61559;50.476;15.588;2023-06-14T00:02:34;3.30;;;1.90;;
73107;SDS011;61559;50.476;15.588;2023-06-14T00:05:03;2.50;;;1.90;;
73107;SDS011;61559;50.476;15.588;2023-06-14T00:07:35;4.00;;;2.30;;
73107;SDS011;61559;50.476;15.588;2023-06-14T00:10:09;2.30;;;1.90;;
73107;SDS011;61559;50.476;15.588;2023-06-14T00:12:38;3.70;;;2.40;;
73107;SDS011;61559;50.476;15.588;2023-06-14T00:15:07;3.60;;;2.00;;
73107;SDS011;61559;50.476;15.588;2023-06-14T00:17:36;3.40;;;2.20;;
73107;SDS011;61559;50.476;15.588;2023-06-14T00:20:06;3.20;;;2.30;;
73107;SDS011;61559;50.476;15.588;2023-06-14T00:22:36;4.70;;;2.20;;
73107;SDS011;61559;50.476;15.588;2023-06-14T00:25:06;3.40;;;2.20;;
73107;SDS011;61559;50.476;15.588;2023-06-14T00:27:55;3.00;;;2.00;;
73107;SDS011;61559;50.476;15.588;2023-06-14T00:30:25;3.80;;;2.10;;
73107;SDS011;61559;50.476;15.588;2023-06-14T00:32:57;4.20;;;2.20;;
73107;SDS011;61559;50.476;15.588;2023-06-14T00:35:26;4.10;;;2.30;;
73107;SDS011;61559;50.476;15.588;2023-06-14T00:37:54;2.70;;;2.20;;
73107;SDS011;61559;50.476;15.588;2023-06-14T00:40:22;3.80;;;2.30;;
73107;SDS011;61559;50.476;15.588;2023-06-14T00:42:51;3.80;;;2.40;;
73107;SDS011;61559;50.476;15.588;2023-06-14T00:45:19;4.10;;;2.50;;
73107;SDS011;61559;50.476;15.588;2023-06-14T00:47:48;3.40;;;2.30;;
73107;SDS011;61559;50.476;15.588;2023-06-14T00:50:22;3.20;;;2.20;;
73107;SDS011;61559;50.476;15.588;2023-06-14T00:52:51;5.70;;;2.50;;
73107;SDS011;61559;50.476;15.588;2023-06-14T00:55:19;3.50;;;2.60;;
73107;SDS011;61559;50.476;15.588;2023-06-14T00:57:48;4.00;;;2.30;;
73107;SDS011;61559;50.476;15.588;2023-06-14T01:00:18;3.80;;;2.70;;
73107;SDS011;61559;50.476;15.588;2023-06-14T01:02:47;4.10;;;2.70;;
73107;SDS011;61559;50.476;15.588;2023-06-14T01:05:16;2.70;;;2.30;;
73107;SDS011;61559;50.476;15.588;2023-06-14T01:07:54;3.90;;;2.20;;
73107;SDS011;61559;50.476;15.588;2023-06-14T01:10:35;2.20;;;1.80;;
73107;SDS011;61559;50.476;15.588;2023-06-14T01:13:09;2.90;;;2.40;;
73107;SDS011;61559;50.476;15.588;2023-06-14T01:15:43;3.50;;;2.20;;
73107;SDS011;61559;50.476;15.588;2023-06-14T01:18:13;5.20;;;2.90;;
73107;SDS011;61559;50.476;15.588;2023-06-14T01:20:44;3.80;;;2.70;;
73107;SDS011;61559;50.476;15.588;2023-06-14T01:23:16;3.10;;;2.60;;
73107;SDS011;61559;50.476;15.588;2023-06-14T01:25:44;4.40;;;2.80;;
73107;SDS011;61559;50.476;15.588;2023-06-14T01:28:14;6.80;;;2.80;;
73107;SDS011;61559;50.476;15.588;2023-06-14T01:30:43;3.30;;;2.30;;
73107;SDS011;61559;50.476;15.588;2023-06-14T01:33:15;2.80;;;2.10;;
73107;SDS011;61559;50.476;15.588;2023-06-14T01:35:46;4.00;;;2.60;;
73107;SDS011;61559;50.476;15.588;2023-06-14T01:38:15;3.10;;;2.40;;
73107;SDS011;61559;50.476;15.588;2023-06-14T01:43:15;3.30;;;2.40;;
73107;SDS011;61559;50.476;15.588;2023-06-14T01:45:45;2.40;;;2.00;;
73107;SDS011;61559;50.476;15.588;2023-06-14T01:48:15;3.30;;;2.30;;
73107;SDS011;61559;50.476;15.588;2023-06-14T01:50:45;3.80;;;2.20;;
73107;SDS011;61559;50.476;15.588;2023-06-14T01:53:14;4.10;;;2.30;;
73107;SDS011;61559;50.476;15.588;2023-06-14T01:55:43;4.80;;;2.50;;
73107;SDS011;61559;50.476;15.588;2023-06-14T01:58:15;3.20;;;2.10;;
73107;SDS011;61559;50.476;15.588;2023-06-14T02:00:44;3.80;;;2.60;;
73107;SDS011;61559;50.476;15.588;2023-06-14T02:03:14;4.00;;;2.40;;
73107;SDS011;61559;50.476;15.588;2023-06-14T02:05:43;3.80;;;2.80;;
73107;SDS011;61559;50.476;15.588;2023-06-14T02:08:11;3.80;;;2.60;;
73107;SDS011;61559;50.476;15.588;2023-06-14T02:10:40;3.40;;;2.30;;
73107;SDS011;61559;50.476;15.588;2023-06-14T02:13:08;3.90;;;2.90;;
73107;SDS011;61559;50.476;15.588;2023-06-14T02:15:37;4.10;;;2.80;;
73107;SDS011;61559;50.476;15.588;2023-06-14T02:18:05;4.20;;;2.50;;
73107;SDS011;61559;50.476;15.588;2023-06-14T02:20:33;3.40;;;2.60;;
73107;SDS011;61559;50.476;15.588;2023-06-14T02:23:02;2.20;;;2.00;;
73107;SDS011;61559;50.476;15.588;2023-06-14T02:25:30;3.30;;;2.30;;
73107;SDS011;61559;50.476;15.588;2023-06-14T02:27:59;3.30;;;2.50;;
73107;SDS011;61559;50.476;15.588;2023-06-14T02:30:27;3.10;;;2.40;;
73107;SDS011;61559;50.476;15.588;2023-06-14T02:32:56;4.50;;;2.70;;
73107;SDS011;61559;50.476;15.588;2023-06-14T02:35:25;3.70;;;2.50;;
73107;SDS011;61559;50.476;15.588;2023-06-14T02:37:54;5.20;;;2.50;;
73107;SDS011;61559;50.476;15.588;2023-06-14T02:40:22;3.30;;;2.30;;
73107;SDS011;61559;50.476;15.588;2023-06-14T02:42:51;3.90;;;2.40;;
73107;SDS011;61559;50.476;15.588;2023-06-14T02:45:20;4.10;;;2.80;;
73107;SDS011;61559;50.476;15.588;2023-06-14T02:47:48;5.60;;;2.60;;
73107;SDS011;61559;50.476;15.588;2023-06-14T02:50:17;3.40;;;2.50;;
73107;SDS011;61559;50.476;15.588;2023-06-14T02:52:45;3.40;;;2.40;;
73107;SDS011;61559;50.476;15.588;2023-06-14T02:55:14;3.90;;;2.60;;
73107;SDS011;61559;50.476;15.588;2023-06-14T02:57:43;4.80;;;2.70;;
73107;SDS011;61559;50.476;15.588;2023-06-14T03:00:11;4.60;;;2.70;;
73107;SDS011;61559;50.476;15.588;2023-06-14T03:02:43;4.20;;;2.60;;
73107;SDS011;61559;50.476;15.588;2023-06-14T03:05:12;2.70;;;2.20;;
73107;SDS011;61559;50.476;15.588;2023-06-14T03:07:41;3.30;;;2.60;;
73107;SDS011;61559;50.476;15.588;2023-06-14T03:10:11;3.90;;;2.50;;
73107;SDS011;61559;50.476;15.588;2023-06-14T03:12:41;2.90;;;2.30;;
73107;SDS011;61559;50.476;15.588;2023-06-14T03:15:10;4.30;;;2.50;;
73107;SDS011;61559;50.476;15.588;2023-06-14T03:17:39;5.00;;;2.60;;
73107;SDS011;61559;50.476;15.588;2023-06-14T03:20:11;3.00;;;2.10;;
73107;SDS011;61559;50.476;15.588;2023-06-14T03:22:40;2.80;;;2.30;;
73107;SDS011;61559;50.476;15.588;2023-06-14T03:25:11;3.60;;;2.40;;
73107;SDS011;61559;50.476;15.588;2023-06-14T03:27:40;2.60;;;2.20;;
73107;SDS011;61559;50.476;15.588;2023-06-14T03:30:09;3.30;;;2.70;;
73107;SDS011;61559;50.476;15.588;2023-06-14T03:32:38;2.30;;;2.00;;
73107;SDS011;61559;50.476;15.588;2023-06-14T03:35:07;2.80;;;2.40;;
73107;SDS011;61559;50.476;15.588;2023-06-14T03:37:43;3.40;;;2.60;;
73107;SDS011;61559;50.476;15.588;2023-06-14T03:40:12;5.60;;;2.40;;
73107;SDS011;61559;50.476;15.588;2023-06-14T03:42:43;2.70;;;2.10;;
73107;SDS011;61559;50.476;15.588;2023-06-14T03:45:12;2.70;;;2.30;;
73107;SDS011;61559;50.476;15.588;2023-06-14T03:47:40;4.30;;;2.50;;
73107;SDS011;61559;50.476;15.588;2023-06-14T03:50:09;3.50;;;2.30;;
73107;SDS011;61559;50.476;15.588;2023-06-14T03:52:38;3.10;;;2.50;;
73107;SDS011;61559;50.476;15.588;2023-06-14T03:57:40;4.40;;;2.40;;
73107;SDS011;61559;50.476;15.588;2023-06-14T04:00:10;3.00;;;2.60;;
73107;SDS011;61559;50.476;15.588;2023-06-14T04:02:39;3.10;;;2.50;;
73107;SDS011;61559;50.476;15.588;2023-06-14T04:05:09;2.80;;;2.40;;
73107;SDS011;61559;50.476;15.588;2023-06-14T04:07:37;4.90;;;2.50;;
73107;SDS011;61559;50.476;15.588;2023-06-14T04:10:08;4.90;;;2.50;;
73107;SDS011;61559;50.476;15.588;2023-06-14T04:12:37;3.00;;;2.20;;
73107;SDS011;61559;50.476;15.588;2023-06-14T04:15:08;3.20;;;2.40;;
73107;SDS011;61559;50.476;15.588;2023-06-14T04:17:48;5.00;;;2.30;;
73107;SDS011;61559;50.476;15.588;2023-06-14T04:20:17;2.50;;;2.00;;
73107;SDS011;61559;50.476;15.588;2023-06-14T04:22:46;3.00;;;2.10;;
73107;SDS011;61559;50.476;15.588;2023-06-14T04:25:15;2.20;;;1.90;;
73107;SDS011;61559;50.476;15.588;2023-06-14T04:27:50;3.60;;;2.40;;
73107;SDS011;61559;50.476;15.588;2023-06-14T04:30:18;3.60;;;2.30;;
73107;SDS011;61559;50.476;15.588;2023-06-14T04:32:48;3.00;;;2.20;;
73107;SDS011;61559;50.476;15.588;2023-06-14T04:35:16;2.70;;;2.20;;
73107;SDS011;61559;50.476;15.588;2023-06-14T04:37:45;4.00;;;2.30;;
73107;SDS011;61559;50.476;15.588;2023-06-14T04:40:13;2.70;;;2.00;;
73107;SDS011;61559;50.476;15.588;2023-06-14T04:42:42;3.40;;;2.20;;
73107;SDS011;61559;50.476;15.588;2023-06-14T04:45:12;4.90;;;2.50;;
73107;SDS011;61559;50.476;15.588;2023-06-14T04:47:43;3.00;;;2.60;;
73107;SDS011;61559;50.476;15.588;2023-06-14T04:50:11;3.40;;;2.10;;
73107;SDS011;61559;50.476;15.588;2023-06-14T04:52:40;3.20;;;2.20;;
73107;SDS011;61559;50.476;15.588;2023-06-14T04:55:09;2.30;;;2.10;;
73107;SDS011;61559;50.476;15.588;2023-06-14T04:57:38;2.70;;;2.00;;
73107;SDS011;61559;50.476;15.588;2023-06-14T05:00:09;2.90;;;1.90;;
73107;SDS011;61559;50.476;15.588;2023-06-14T05:02:40;4.00;;;2.50;;
73107;SDS011;61559;50.476;15.588;2023-06-14T05:05:08;3.10;;;1.90;;
73107;SDS011;61559;50.476;15.588;2023-06-14T05:07:37;3.90;;;2.20;;
73107;SDS011;61559;50.476;15.588;2023-06-14T05:10:09;3.20;;;2.40;;
73107;SDS011;61559;50.476;15.588;2023-06-14T05:12:37;3.30;;;2.40;;
73107;SDS011;61559;50.476;15.588;2023-06-14T05:15:07;2.70;;;2.30;;
73107;SDS011;61559;50.476;15.588;2023-06-14T05:17:36;2.70;;;2.20;;
73107;SDS011;61559;50.476;15.588;2023-06-14T05:20:08;2.50;;;2.00;;
73107;SDS011;61559;50.476;15.588;2023-06-14T05:22:37;2.80;;;2.50;;
73107;SDS011;61559;50.476;15.588;2023-06-14T05:25:06;2.80;;;2.50;;
73107;SDS011;61559;50.476;15.588;2023-06-14T05:27:35;2.40;;;2.20;;
73107;SDS011;61559;50.476;15.588;2023-06-14T05:30:04;3.50;;;2.40;;
73107;SDS011;61559;50.476;15.588;2023-06-14T05:32:35;3.90;;;2.40;;
73107;SDS011;61559;50.476;15.588;2023-06-14T05:35:03;2.60;;;2.30;;
73107;SDS011;61559;50.476;15.588;2023-06-14T05:37:33;4.30;;;2.60;;
73107;SDS011;61559;50.476;15.588;2023-06-14T05:40:02;2.80;;;2.30;;
73107;SDS011;61559;50.476;15.588;2023-06-14T05:42:32;3.50;;;2.40;;
73107;SDS011;61559;50.476;15.588;2023-06-14T05:45:01;2.50;;;2.20;;
73107;SDS011;61559;50.476;15.588;2023-06-14T05:47:31;3.40;;;2.60;;
73107;SDS011;61559;50.476;15.588;2023-06-14T05:49:59;3.60;;;2.10;;
73107;SDS011;61559;50.476;15.588;2023-06-14T05:52:30;4.20;;;2.00;;
73107;SDS011;61559;50.476;15.588;2023-06-14T05:54:58;3.60;;;2.50;;
73107;SDS011;61559;50.476;15.588;2023-06-14T05:59:56;3.00;;;2.40;;
73107;SDS011;61559;50.476;15.588;2023-06-14T06:02:25;2.20;;;1.80;;
73107;SDS011;61559;50.476;15.588;2023-06-14T06:04:54;5.10;;;2.10;;
73107;SDS011;61559;50.476;15.588;2023-06-14T06:07:23;2.70;;;2.00;;
73107;SDS011;61559;50.476;15.588;2023-06-14T06:09:51;2.80;;;2.10;;
73107;SDS011;61559;50.476;15.588;2023-06-14T06:12:20;2.90;;;2.10;;
73107;SDS011;61559;50.476;15.588;2023-06-14T06:14:48;3.10;;;1.70;;
73107;SDS011;61559;50.476;15.588;2023-06-14T06:17:16;4.10;;;1.90;;
73107;SDS011;61559;50.476;15.588;2023-06-14T06:19:45;3.20;;;2.00;;
73107;SDS011;61559;50.476;15.588;2023-06-14T06:22:13;3.60;;;1.70;;
73107;SDS011;61559;50.476;15.588;2023-06-14T06:24:42;3.30;;;1.70;;
73107;SDS011;61559;50.476;15.588;2023-06-14T06:27:12;2.50;;;1.60;;
73107;SDS011;61559;50.476;15.588;2023-06-14T06:29:41;1.50;;;1.40;;
73107;SDS011;61559;50.476;15.588;2023-06-14T06:32:10;1.80;;;1.30;;
73107;SDS011;61559;50.476;15.588;2023-06-14T06:34:38;3.60;;;1.60;;
73107;SDS011;61559;50.476;15.588;2023-06-14T06:37:07;2.20;;;1.30;;
73107;SDS011;61559;50.476;15.588;2023-06-14T06:39:35;1.90;;;1.40;;
73107;SDS011;61559;50.476;15.588;2023-06-14T06:42:04;2.20;;;1.50;;
73107;SDS011;61559;50.476;15.588;2023-06-14T06:44:33;2.10;;;1.60;;
73107;SDS011;61559;50.476;15.588;2023-06-14T06:47:01;2.90;;;1.20;;
73107;SDS011;61559;50.476;15.588;2023-06-14T06:49:30;2.80;;;1.60;;
73107;SDS011;61559;50.476;15.588;2023-06-14T06:52:02;2.40;;;1.40;;
73107;SDS011;61559;50.476;15.588;2023-06-14T06:54:32;2.60;;;1.40;;
73107;SDS011;61559;50.476;15.588;2023-06-14T06:57:00;2.90;;;1.90;;
73107;SDS011;61559;50.476;15.588;2023-06-14T06:59:30;2.40;;;1.50;;
73107;SDS011;61559;50.476;15.588;2023-06-14T07:01:59;3.40;;;1.50;;
73107;SDS011;61559;50.476;15.588;2023-06-14T07:04:28;2.50;;;1.30;;
73107;SDS011;61559;50.476;15.588;2023-06-14T07:06:56;2.50;;;1.50;;
73107;SDS011;61559;50.476;15.588;2023-06-14T07:09:25;2.50;;;1.70;;
73107;SDS011;61559;50.476;15.588;2023-06-14T07:11:53;2.70;;;1.70;;
73107;SDS011;61559;50.476;15.588;2023-06-14T07:14:22;2.50;;;1.40;;
73107;SDS011;61559;50.476;15.588;2023-06-14T07:16:51;2.60;;;1.50;;
73107;SDS011;61559;50.476;15.588;2023-06-14T07:19:19;2.50;;;1.60;;
73107;SDS011;61559;50.476;15.588;2023-06-14T07:21:48;2.50;;;1.60;;
73107;SDS011;61559;50.476;15.588;2023-06-14T07:24:16;4.70;;;1.80;;
73107;SDS011;61559;50.476;15.588;2023-06-14T07:26:45;3.00;;;1.70;;
73107;SDS011;61559;50.476;15.588;2023-06-14T07:29:15;2.80;;;2.00;;
73107;SDS011;61559;50.476;15.588;2023-06-14T07:31:43;3.90;;;1.90;;
73107;SDS011;61559;50.476;15.588;2023-06-14T07:34:12;3.20;;;1.90;;
73107;SDS011;61559;50.476;15.588;2023-06-14T07:36:40;5.70;;;2.10;;
73107;SDS011;61559;50.476;15.588;2023-06-14T07:39:11;3.50;;;1.60;;
73107;SDS011;61559;50.476;15.588;2023-06-14T07:41:39;4.20;;;2.20;;
73107;SDS011;61559;50.476;15.588;2023-06-14T07:44:07;4.70;;;1.80;;
73107;SDS011;61559;50.476;15.588;2023-06-14T07:46:37;3.90;;;2.00;;
73107;SDS011;61559;50.476;15.588;2023-06-14T07:49:05;2.90;;;2.00;;
73107;SDS011;61559;50.476;15.588;2023-06-14T07:51:34;3.90;;;2.30;;
73107;SDS011;61559;50.476;15.588;2023-06-14T07:54:02;3.50;;;2.20;;
73107;SDS011;61559;50.476;15.588;2023-06-14T07:56:34;3.40;;;1.80;;
73107;SDS011;61559;50.476;15.588;2023-06-14T07:59:03;4.20;;;2.40;;
73107;SDS011;61559;50.476;15.588;2023-06-14T08:01:32;4.60;;;2.30;;
73107;SDS011;61559;50.476;15.588;2023-06-14T08:04:01;3.20;;;2.00;;
73107;SDS011;61559;50.476;15.588;2023-06-14T08:06:30;3.90;;;2.20;;
73107;SDS011;61559;50.476;15.588;2023-06-14T08:09:00;3.80;;;2.20;;
73107;SDS011;61559;50.476;15.588;2023-06-14T08:11:29;3.40;;;2.00;;
73107;SDS011;61559;50.476;15.588;2023-06-14T08:13:57;4.40;;;2.50;;
73107;SDS011;61559;50.476;15.588;2023-06-14T08:16:25;3.40;;;2.00;;
73107;SDS011;61559;50.476;15.588;2023-06-14T08:18:54;2.90;;;1.90;;
73107;SDS011;61559;50.476;15.588;2023-06-14T08:21:22;4.70;;;2.50;;
73107;SDS011;61559;50.476;15.588;2023-06-14T08:23:55;2.90;;;1.80;;
73107;SDS011;61559;50.476;15.588;2023-06-14T08:26:25;3.70;;;2.20;;
73107;SDS011;61559;50.476;15.588;2023-06-14T08:28:55;2.50;;;1.80;;
73107;SDS011;61559;50.476;15.588;2023-06-14T08:31:24;3.00;;;2.20;;
73107;SDS011;61559;50.476;15.588;2023-06-14T08:33:54;3.60;;;1.90;;
73107;SDS011;61559;50.476;15.588;2023-06-14T08:36:22;3.40;;;2.40;;
73107;SDS011;61559;50.476;15.588;2023-06-14T08:38:51;3.60;;;2.00;;
73107;SDS011;61559;50.476;15.588;2023-06-14T08:41:21;4.10;;;2.20;;
73107;SDS011;61559;50.476;15.588;2023-06-14T08:43:51;4.30;;;2.50;;
73107;SDS011;61559;50.476;15.588;2023-06-14T08:46:19;3.80;;;2.30;;
73107;SDS011;61559;50.476;15.588;2023-06-14T08:48:49;3.10;;;2.20;;
73107;SDS011;61559;50.476;15.588;2023-06-14T08:51:19;3.10;;;2.20;;
73107;SDS011;61559;50.476;15.588;2023-06-14T08:53:51;2.90;;;1.90;;
73107;SDS011;61559;50.476;15.588;2023-06-14T08:56:25;4.60;;;2.00;;
73107;SDS011;61559;50.476;15.588;2023-06-14T08:58:55;2.90;;;1.80;;
73107;SDS011;61559;50.476;15.588;2023-06-14T09:01:24;2.70;;;2.00;;
73107;SDS011;61559;50.476;15.588;2023-06-14T09:03:53;5.00;;;2.20;;
73107;SDS011;61559;50.476;15.588;2023-06-14T09:06:24;3.00;;;2.00;;
73107;SDS011;61559;50.476;15.588;2023-06-14T09:08:55;4.20;;;2.10;;
73107;SDS011;61559;50.476;15.588;2023-06-14T09:11:24;2.40;;;1.70;;
73107;SDS011;61559;50.476;15.588;2023-06-14T09:13:53;3.50;;;2.00;;
73107;SDS011;61559;50.476;15.588;2023-06-14T09:16:21;2.80;;;1.80;;
73107;SDS011;61559;50.476;15.588;2023-06-14T09:18:50;3.10;;;1.70;;
73107;SDS011;61559;50.476;15.588;2023-06-14T09:21:19;2.80;;;1.70;;
73107;SDS011;61559;50.476;15.588;2023-06-14T09:23:48;4.40;;;2.00;;
73107;SDS011;61559;50.476;15.588;2023-06-14T09:26:17;3.30;;;2.20;;
73107;SDS011;61559;50.476;15.588;2023-06-14T09:28:47;3.40;;;1.80;;
73107;SDS011;61559;50.476;15.588;2023-06-14T09:31:17;2.80;;;2.00;;
73107;SDS011;61559;50.476;15.588;2023-06-14T09:33:47;3.60;;;2.50;;
73107;SDS011;61559;50.476;15.588;2023-06-14T09:36:18;3.80;;;2.60;;
73107;SDS011;61559;50.476;15.588;2023-06-14T09:38:55;3.90;;;3.00;;
73107;SDS011;61559;50.476;15.588;2023-06-14T09:41:30;4.50;;;2.80;;
73107;SDS011;61559;50.476;15.588;2023-06-14T09:44:00;6.30;;;3.70;;
73107;SDS011;61559;50.476;15.588;2023-06-14T09:46:33;4.80;;;3.20;;
73107;SDS011;61559;50.476;15.588;2023-06-14T09:49:03;4.70;;;2.90;;
73107;SDS011;61559;50.476;15.588;2023-06-14T09:54:02;3.50;;;2.70;;
73107;SDS011;61559;50.476;15.588;2023-06-14T09:56:31;5.90;;;3.10;;
73107;SDS011;61559;50.476;15.588;2023-06-14T09:59:03;4.70;;;3.40;;
73107;SDS011;61559;50.476;15.588;2023-06-14T10:01:35;7.30;;;4.00;;
73107;SDS011;61559;50.476;15.588;2023-06-14T10:04:09;5.70;;;3.60;;
73107;SDS011;61559;50.476;15.588;2023-06-14T10:06:40;4.40;;;3.30;;
73107;SDS011;61559;50.476;15.588;2023-06-14T10:09:10;7.00;;;4.00;;
73107;SDS011;61559;50.476;15.588;2023-06-14T10:11:39;5.10;;;3.80;;
73107;SDS011;61559;50.476;15.588;2023-06-14T10:14:11;6.50;;;4.00;;
73107;SDS011;61559;50.476;15.588;2023-06-14T10:16:42;6.70;;;4.20;;
73107;SDS011;61559;50.476;15.588;2023-06-14T10:19:18;6.60;;;4.80;;
73107;SDS011;61559;50.476;15.588;2023-06-14T10:22:03;6.90;;;4.60;;
73107;SDS011;61559;50.476;15.588;2023-06-14T10:24:37;7.30;;;4.70;;
73107;SDS011;61559;50.476;15.588;2023-06-14T10:27:08;7.80;;;5.20;;
73107;SDS011;61559;50.476;15.588;2023-06-14T10:32:34;8.50;;;5.60;;
73107;SDS011;61559;50.476;15.588;2023-06-14T10:35:22;8.40;;;5.80;;
73107;SDS011;61559;50.476;15.588;2023-06-14T10:37:51;8.10;;;5.30;;
73107;SDS011;61559;50.476;15.588;2023-06-14T10:40:30;7.10;;;5.30;;
73107;SDS011;61559;50.476;15.588;2023-06-14T10:42:59;7.30;;;4.80;;
73107;SDS011;61559;50.476;15.588;2023-06-14T10:45:27;7.10;;;4.70;;
73107;SDS011;61559;50.476;15.588;2023-06-14T10:47:57;8.00;;;5.50;;
73107;SDS011;61559;50.476;15.588;2023-06-14T10:50:27;9.30;;;5.60;;
73107;SDS011;61559;50.476;15.588;2023-06-14T10:52:56;8.80;;;5.60;;
73107;SDS011;61559;50.476;15.588;2023-06-14T10:55:25;11.10;;;6.00;;
73107;SDS011;61559;50.476;15.588;2023-06-14T10:58:01;8.50;;;5.20;;
73107;SDS011;61559;50.476;15.588;2023-06-14T11:00:30;8.60;;;5.30;;
73107;SDS011;61559;50.476;15.588;2023-06-14T11:03:17;8.80;;;5.40;;
73107;SDS011;61559;50.476;15.588;2023-06-14T11:06:12;9.10;;;6.10;;
73107;SDS011;61559;50.476;15.588;2023-06-14T11:09:04;9.20;;;5.80;;
73107;SDS011;61559;50.476;15.588;2023-06-14T11:11:49;9.60;;;6.20;;
73107;SDS011;61559;50.476;15.588;2023-06-14T11:14:21;8.30;;;5.50;;
73107;SDS011;61559;50.476;15.588;2023-06-14T11:16:49;8.00;;;5.10;;
73107;SDS011;61559;50.476;15.588;2023-06-14T11:19:18;9.20;;;6.00;;
73107;SDS011;61559;50.476;15.588;2023-06-14T11:21:48;8.80;;;6.50;;
73107;SDS011;61559;50.476;15.588;2023-06-14T11:24:16;7.80;;;6.20;;
73107;SDS011;61559;50.476;15.588;2023-06-14T11:26:46;9.10;;;5.90;;
73107;SDS011;61559;50.476;15.588;2023-06-14T11:29:15;8.00;;;6.10;;
73107;SDS011;61559;50.476;15.588;2023-06-14T11:31:44;9.90;;;6.60;;
73107;SDS011;61559;50.476;15.588;2023-06-14T11:34:13;8.30;;;5.40;;
73107;SDS011;61559;50.476;15.588;2023-06-14T11:36:42;7.60;;;5.60;;
73107;SDS011;61559;50.476;15.588;2023-06-14T11:39:10;8.10;;;6.20;;
73107;SDS011;61559;50.476;15.588;2023-06-14T11:41:40;7.10;;;5.20;;
73107;SDS011;61559;50.476;15.588;2023-06-14T11:44:11;8.70;;;6.30;;
73107;SDS011;61559;50.476;15.588;2023-06-14T11:46:39;7.00;;;5.60;;
73107;SDS011;61559;50.476;15.588;2023-06-14T11:49:08;9.00;;;5.90;;
73107;SDS011;61559;50.476;15.588;2023-06-14T11:51:37;8.00;;;6.00;;
73107;SDS011;61559;50.476;15.588;2023-06-14T11:54:06;8.00;;;5.70;;
73107;SDS011;61559;50.476;15.588;2023-06-14T11:56:36;6.70;;;4.80;;
73107;SDS011;61559;50.476;15.588;2023-06-14T11:59:05;7.70;;;5.80;;
73107;SDS011;61559;50.476;15.588;2023-06-14T12:01:36;7.50;;;5.30;;
73107;SDS011;61559;50.476;15.588;2023-06-14T12:04:06;7.60;;;5.30;;
73107;SDS011;61559;50.476;15.588;2023-06-14T12:06:35;10.80;;;5.80;;
73107;SDS011;61559;50.476;15.588;2023-06-14T12:09:06;6.50;;;5.10;;
73107;SDS011;61559;50.476;15.588;2023-06-14T12:11:39;5.90;;;5.10;;
73107;SDS011;61559;50.476;15.588;2023-06-14T12:14:08;6.30;;;5.00;;
73107;SDS011;61559;50.476;15.588;2023-06-14T12:16:38;7.70;;;6.20;;
73107;SDS011;61559;50.476;15.588;2023-06-14T12:19:08;6.90;;;5.40;;
73107;SDS011;61559;50.476;15.588;2023-06-14T12:21:39;7.90;;;5.80;;
73107;SDS011;61559;50.476;15.588;2023-06-14T12:24:08;7.60;;;6.10;;
73107;SDS011;61559;50.476;15.588;2023-06-14T12:26:39;7.30;;;5.60;;
73107;SDS011;61559;50.476;15.588;2023-06-14T12:29:08;7.40;;;5.40;;
73107;SDS011;61559;50.476;15.588;2023-06-14T12:31:37;9.40;;;6.40;;
73107;SDS011;61559;50.476;15.588;2023-06-14T12:34:06;7.00;;;5.40;;
73107;SDS011;61559;50.476;15.588;2023-06-14T12:36:35;7.50;;;6.00;;
73107;SDS011;61559;50.476;15.588;2023-06-14T12:39:08;6.20;;;5.20;;
73107;SDS011;61559;50.476;15.588;2023-06-14T12:41:37;5.40;;;4.40;;
73107;SDS011;61559;50.476;15.588;2023-06-14T12:44:08;5.60;;;4.80;;
73107;SDS011;61559;50.476;15.588;2023-06-14T12:46:36;6.40;;;4.70;;
73107;SDS011;61559;50.476;15.588;2023-06-14T12:49:07;5.90;;;4.30;;
73107;SDS011;61559;50.476;15.588;2023-06-14T12:51:36;5.20;;;4.60;;
73107;SDS011;61559;50.476;15.588;2023-06-14T12:54:05;5.70;;;4.40;;
73107;SDS011;61559;50.476;15.588;2023-06-14T12:56:34;5.20;;;4.40;;
73107;SDS011;61559;50.476;15.588;2023-06-14T12:59:03;4.00;;;3.20;;
73107;SDS011;61559;50.476;15.588;2023-06-14T13:01:32;4.00;;;3.10;;
73107;SDS011;61559;50.476;15.588;2023-06-14T13:04:00;4.90;;;3.60;;
73107;SDS011;61559;50.476;15.588;2023-06-14T13:06:29;5.50;;;3.80;;
73107;SDS011;61559;50.476;15.588;2023-06-14T13:08:58;4.30;;;3.40;;
73107;SDS011;61559;50.476;15.588;2023-06-14T13:11:28;4.00;;;3.20;;
73107;SDS011;61559;50.476;15.588;2023-06-14T13:13:57;6.10;;;3.10;;
73107;SDS011;61559;50.476;15.588;2023-06-14T13:16:28;4.20;;;3.30;;
73107;SDS011;61559;50.476;15.588;2023-06-14T13:18:56;5.50;;;3.70;;
73107;SDS011;61559;50.476;15.588;2023-06-14T13:21:25;4.00;;;2.70;;
73107;SDS011;61559;50.476;15.588;2023-06-14T13:23:53;4.10;;;2.60;;
73107;SDS011;61559;50.476;15.588;2023-06-14T13:26:22;3.40;;;2.90;;
73107;SDS011;61559;50.476;15.588;2023-06-14T13:28:51;4.70;;;3.20;;
73107;SDS011;61559;50.476;15.588;2023-06-14T13:31:20;4.50;;;3.60;;
73107;SDS011;61559;50.476;15.588;2023-06-14T13:33:48;5.70;;;3.50;;
73107;SDS011;61559;50.476;15.588;2023-06-14T13:36:16;4.40;;;2.90;;
73107;SDS011;61559;50.476;15.588;2023-06-14T13:38:45;3.40;;;2.70;;
73107;SDS011;61559;50.476;15.588;2023-06-14T13:41:16;3.70;;;2.40;;
73107;SDS011;61559;50.476;15.588;2023-06-14T13:43:44;5.10;;;3.40;;
73107;SDS011;61559;50.476;15.588;2023-06-14T13:46:12;3.80;;;2.50;;
73107;SDS011;61559;50.476;15.588;2023-06-14T13:48:41;3.90;;;2.70;;
73107;SDS011;61559;50.476;15.588;2023-06-14T13:51:10;3.10;;;2.40;;
73107;SDS011;61559;50.476;15.588;2023-06-14T13:53:38;4.80;;;2.80;;
73107;SDS011;61559;50.476;15.588;2023-06-14T13:56:07;3.60;;;2.50;;
73107;SDS011;61559;50.476;15.588;2023-06-14T13:58:35;4.10;;;3.00;;
73107;SDS011;61559;50.476;15.588;2023-06-14T14:01:04;3.60;;;2.40;;
73107;SDS011;61559;50.476;15.588;2023-06-14T14:03:37;3.10;;;2.30;;
73107;SDS011;61559;50.476;15.588;2023-06-14T14:06:05;2.50;;;2.30;;
73107;SDS011;61559;50.476;15.588;2023-06-14T14:08:34;2.00;;;1.60;;
73107;SDS011;61559;50.476;15.588;2023-06-14T14:11:03;2.90;;;2.20;;
73107;SDS011;61559;50.476;15.588;2023-06-14T14:13:32;2.70;;;2.20;;
73107;SDS011;61559;50.476;15.588;2023-06-14T14:16:03;3.40;;;2.70;;
73107;SDS011;61559;50.476;15.588;2023-06-14T14:18:31;3.90;;;2.60;;
73107;SDS011;61559;50.476;15.588;2023-06-14T14:21:00;2.50;;;2.10;;
73107;SDS011;61559;50.476;15.588;2023-06-14T14:23:29;4.40;;;2.90;;
73107;SDS011;61559;50.476;15.588;2023-06-14T14:25:57;3.20;;;2.50;;
73107;SDS011;61559;50.476;15.588;2023-06-14T14:28:30;3.30;;;2.60;;
73107;SDS011;61559;50.476;15.588;2023-06-14T14:31:01;4.20;;;2.80;;
73107;SDS011;61559;50.476;15.588;2023-06-14T14:33:30;3.30;;;2.90;;
73107;SDS011;61559;50.476;15.588;2023-06-14T14:35:58;3.30;;;2.90;;
73107;SDS011;61559;50.476;15.588;2023-06-14T14:38:30;3.50;;;3.20;;
73107;SDS011;61559;50.476;15.588;2023-06-14T14:40:58;3.70;;;3.30;;
73107;SDS011;61559;50.476;15.588;2023-06-14T14:43:27;4.40;;;3.30;;
73107;SDS011;61559;50.476;15.588;2023-06-14T14:45:57;4.10;;;3.60;;
73107;SDS011;61559;50.476;15.588;2023-06-14T14:48:26;3.40;;;3.10;;
73107;SDS011;61559;50.476;15.588;2023-06-14T14:50:54;3.40;;;3.00;;
73107;SDS011;61559;50.476;15.588;2023-06-14T14:53:23;3.60;;;3.30;;
73107;SDS011;61559;50.476;15.588;2023-06-14T14:55:51;4.90;;;3.30;;
73107;SDS011;61559;50.476;15.588;2023-06-14T14:58:20;3.90;;;3.30;;
73107;SDS011;61559;50.476;15.588;2023-06-14T15:00:48;5.30;;;3.50;;